Big Springs, NE (69122)

10:35 PM MST on March 03, 2015 (GMT -0700)
MesoWest BIGSWS NE US UPR | Change Station
CLOSE
Current Station
Personal Weather Station
Location: Big Springs, NE
Elevation: 3356 ft
Nearby Weather Stations

Elev 3356 ft 41.07 °N, 102.02 °W | Updated 1 hour ago

Snow
Snow
25.0 °F
Feels Like 25.0 °F
N
3.0
Wind Variable Wind from East
Gusts 5.0 mph

Today
High -- | Low -- °F
--% Chance of Precip.
Yesterday
High -- | Low -- °F
Precip. -- in
6:20 AM 5:41 PM
Waxing Gibbous, 98% visible
Pressure 30.08 in
Visibility 3.0 miles
Clouds Mostly Cloudy 1100 ft
Mostly Cloudy 1700 ft
Overcast 2200 ft
Dew Point Not available.
Humidity Not available.
Rainfall -999.00 in
Snow Depth Not available.
UV 0 out of 12
Pollen .70 out of 12
Air Quality Not available.
Flu Activity Not available.
METAR KOGA 040515Z AUTO 00000KT 3SM -SN BKN011 BKN017 OVC022 M08/M10 A3008 RMK AO2 T10821097

More Conditions Fewer Conditions

Pressure 30.08 in
Visibility 3.0 miles
Clouds Mostly Cloudy 1100 ft
Mostly Cloudy 1700 ft
Overcast 2200 ft
Dew Point Not available.
Humidity Not available.
Rainfall -999.00 in
Snow Depth Not available.
UV 0 out of 12
Pollen .70 out of 12
Air Quality Not available.
Flu Activity Not available.
METAR KOGA 040515Z AUTO 00000KT 3SM -SN BKN011 BKN017 OVC022 M08/M10 A3008 RMK AO2 T10821097

More Conditions Fewer Conditions

Nowcast | as of 10:37 PM CST on March 3, 2015

Widespread light snow will reduce visibility slightly but accumulations...if any...will be light.

×

10-Day Weather Forecast

Almanac

Astronomy

Mar. 03, 2015 Rise Set
Actual Time
Civil Twilight
Nautical Twilight
Astronomical Twilight
Moon
Length of Visible Light
Length of Day
Tomorrow will be .
, % of the Moon is Illuminated

Today's Extremes

State Highs State Lows

Community

WunderPhotos

Upload Photos

1,802,400 photos uploaded!

WunderBlogs® & News

Nearby

Air Quality

  Air Quality AQ Index Pollutant
Not available.

Snow Depth

Station Depth Elevation

Earthquake Activity

City Distance Mag. Time & Date
Minimum magnitude displayed is 2.5.

Coastal Water Temperatures

Place Temperature

Nearby Weather Stations